Charlestown, MA

6:07 AM EDT on July 28, 2015 (GMT -0400)
North End, Boston | | Change Station
CLOSE
Current Station
Personal Weather Station
Location: Boston, MA
Elevation: 69 ft
Nearby Weather Stations

Elev 69 ft 42.37 °N, 71.06 °W | Updated 5 seconds ago

Scattered Clouds
Scattered Clouds
72.7 °F
Feels Like 72.7 °F
N
8.3
Wind Variable Wind from SW
Gusts 9.8 mph

Today
High -- | Low -- °F
--% Chance of Precip.
Yesterday
High -- | Low -- °F
Precip. -- in
5:32 AM 8:08 PM
Waxing Gibbous, 88% visible
Pressure 29.98 in
Visibility 10.0 miles
Clouds Few 900 ft
Scattered Clouds 13000 ft
Scattered Clouds 20000 ft
Dew Point 70 °F
Humidity 91%
Rainfall 0.00 in
Snow Depth Not available.
UV 0.0 out of 12
Pollen 4.50 out of 12
Air Quality Not available.
Flu Activity Not available.
METAR KBOS 280954Z 22007KT 10SM FEW009 SCT130 SCT200 21/20 A2998 RMK AO2 SLP152 T02110200

More Conditions Fewer Conditions

Pressure 29.98 in
Visibility 10.0 miles
Clouds Few 900 ft
Scattered Clouds 13000 ft
Scattered Clouds 20000 ft
Dew Point 70 °F
Humidity 91%
Rainfall 0.00 in
Snow Depth Not available.
UV 0.0 out of 12
Pollen 4.50 out of 12
Air Quality Not available.
Flu Activity Not available.
METAR KBOS 280954Z 22007KT 10SM FEW009 SCT130 SCT200 21/20 A2998 RMK AO2 SLP152 T02110200

More Conditions Fewer Conditions

10-Day Weather Forecast

×

Almanac

Astronomy

Jul. 28, 2015 Rise Set
Actual Time
Civil Twilight
Nautical Twilight
Astronomical Twilight
Moon
Length of Visible Light
Length of Day
Tomorrow will be .
, % of the Moon is Illuminated

Today's Extremes

State Highs State Lows

Community

WunderPhotos

Upload Photos

1,841,800 photos uploaded!

WunderBlogs® & News

Nearby

Air Quality

  Air Quality AQ Index Pollutant
Not available.

Snow Depth

Station Depth Elevation

Earthquake Activity

City Distance Mag. Time & Date
Minimum magnitude displayed is 2.5.

Coastal Water Temperatures

Place Temperature

Stations

Nearby Weather Stations

Station Location Temp. Windchill Dew Point Humidity Wind Precip. Elev Updated Type